createdAt,value
2022-11-02T00:01:28.838Z,73.46
2022-11-02T00:03:55.506Z,72.81
2022-11-02T00:06:22.104Z,72.55
2022-11-02T00:08:48.687Z,72.74
2022-11-02T00:11:15.289Z,71.84
2022-11-02T00:13:41.888Z,72.03
2022-11-02T00:16:10.922Z,71.93
2022-11-02T00:18:37.660Z,71.48
2022-11-02T00:21:04.313Z,71.85
2022-11-02T00:23:30.927Z,71.86
2022-11-02T00:26:01.834Z,74.31
2022-11-02T00:28:29.097Z,74.33
2022-11-02T00:30:55.672Z,73.18
2022-11-02T00:33:22.299Z,73.33
2022-11-02T00:35:48.910Z,73.09
2022-11-02T00:38:15.562Z,72.77
2022-11-02T00:40:42.138Z,72.51
2022-11-02T00:43:08.736Z,72.64
2022-11-02T00:45:35.342Z,73.76
2022-11-02T00:48:02.331Z,73.47
2022-11-02T00:50:29.227Z,72.45
2022-11-02T00:52:55.831Z,72.65
2022-11-02T00:55:22.571Z,72.99
2022-11-02T00:57:49.296Z,72.34
2022-11-02T01:00:16.393Z,71.99
2022-11-02T01:02:43.208Z,72.65
2022-11-02T01:05:10.660Z,73.19
2022-11-02T01:07:37.673Z,73.61
2022-11-02T01:10:08.465Z,73.62
2022-11-02T01:12:37.629Z,73.72
2022-11-02T01:15:05.993Z,73.79
2022-11-02T01:17:32.616Z,73.92
2022-11-02T01:19:59.481Z,73.97
2022-11-02T01:22:26.070Z,73.42
2022-11-02T01:24:52.617Z,73.45
2022-11-02T01:27:19.285Z,73.17
2022-11-02T01:29:45.949Z,72.75
2022-11-02T01:32:12.641Z,72.48
2022-11-02T01:34:39.285Z,73.46
2022-11-02T01:37:05.847Z,73.96
2022-11-02T01:39:32.437Z,73.44
2022-11-02T01:41:59.124Z,74.17
2022-11-02T01:44:33.384Z,75.84
2022-11-02T01:47:14.044Z,75.91
2022-11-02T01:49:42.191Z,77.56
2022-11-02T01:52:20.561Z,79.40
2022-11-02T01:54:53.280Z,78.42
2022-11-02T01:57:21.114Z,78.34
2022-11-02T01:59:58.283Z,78.30
2022-11-02T02:02:25.602Z,78.03
2022-11-02T02:04:56.171Z,78.97
2022-11-02T02:07:24.347Z,76.75
2022-11-02T02:09:51.564Z,76.39
2022-11-02T02:12:18.307Z,75.69
2022-11-02T02:14:44.903Z,75.26
2022-11-02T02:17:18.990Z,75.10
2022-11-02T02:19:54.227Z,76.12
2022-11-02T02:22:40.961Z,75.16
2022-11-02T02:25:29.113Z,74.45
2022-11-02T02:28:07.134Z,75.57
2022-11-02T02:31:06.543Z,75.79
2022-11-02T02:33:39.232Z,76.44
2022-11-02T02:36:31.681Z,76.97
2022-11-02T02:39:06.645Z,77.35
2022-11-02T02:41:40.569Z,77.19
2022-11-02T02:44:09.898Z,76.57
2022-11-02T02:46:42.617Z,75.81
2022-11-02T02:49:11.262Z,75.93
2022-11-02T02:51:37.911Z,75.00
2022-11-02T02:54:11.216Z,74.18
2022-11-02T02:59:28.542Z,77.32
2022-11-02T03:01:55.716Z,76.28
2022-11-02T03:04:22.566Z,75.78
2022-11-02T03:06:51.749Z,75.82
2022-11-02T03:09:33.060Z,74.70
2022-11-02T03:12:14.841Z,73.77
2022-11-02T03:14:57.975Z,73.50
2022-11-02T03:17:45.908Z,74.19
2022-11-02T03:20:18.473Z,73.67
2022-11-02T03:23:20.484Z,74.68
2022-11-02T03:26:13.185Z,76.92
2022-11-02T03:28:45.519Z,76.75
2022-11-02T03:31:57.095Z,77.54
2022-11-02T03:34:46.051Z,77.55
2022-11-02T03:37:25.822Z,76.49
2022-11-02T03:39:55.135Z,75.78
2022-11-02T03:42:23.633Z,75.00
2022-11-02T03:44:53.322Z,74.37
2022-11-02T03:47:20.059Z,73.92
2022-11-02T03:49:46.803Z,74.31
2022-11-02T03:52:21.313Z,74.17
2022-11-02T03:54:55.242Z,74.64
2022-11-02T03:57:25.024Z,74.43
2022-11-02T03:59:51.737Z,75.26
2022-11-02T04:02:19.657Z,75.49
2022-11-02T04:04:50.632Z,75.45
2022-11-02T04:07:19.770Z,75.20
2022-11-02T04:09:46.430Z,74.63
2022-11-02T04:12:31.778Z,75.53
2022-11-02T04:14:58.343Z,75.66
2022-11-02T04:17:57.702Z,75.72
2022-11-02T04:20:24.277Z,75.35
2022-11-02T04:23:09.557Z,76.08
2022-11-02T04:25:36.222Z,77.06
2022-11-02T04:28:09.123Z,76.63
2022-11-02T04:30:35.791Z,76.55
2022-11-02T04:33:20.790Z,76.49
2022-11-02T04:35:47.481Z,76.31
2022-11-02T04:38:32.518Z,77.06
2022-11-02T04:41:20.784Z,76.93
2022-11-02T04:43:47.394Z,77.56
2022-11-02T04:46:14.014Z,77.91
2022-11-02T04:48:40.685Z,77.81
2022-11-02T04:51:07.309Z,77.00
2022-11-02T04:53:35.346Z,77.24
2022-11-02T04:56:02.560Z,78.42
2022-11-02T04:58:29.175Z,77.98
2022-11-02T05:00:55.723Z,77.42
2022-11-02T05:03:22.389Z,77.56
2022-11-02T05:05:49.054Z,77.46
2022-11-02T05:08:15.707Z,77.77
2022-11-02T05:10:42.340Z,77.86
2022-11-02T05:13:08.986Z,77.31
2022-11-02T05:15:35.826Z,77.46
2022-11-02T05:18:03.129Z,77.56
2022-11-02T05:20:30.054Z,78.37
2022-11-02T05:22:56.626Z,77.92
2022-11-02T05:25:23.310Z,77.14
2022-11-02T05:27:49.929Z,77.12
2022-11-02T05:30:16.849Z,77.43
2022-11-02T05:32:43.409Z,77.12
2022-11-02T05:35:10.164Z,77.63
2022-11-02T05:37:36.808Z,76.86
2022-11-02T05:40:03.804Z,77.36
2022-11-02T05:42:30.503Z,77.07
2022-11-02T05:44:57.104Z,76.60
2022-11-02T05:47:23.737Z,77.40
2022-11-02T05:49:50.413Z,79.05
2022-11-02T05:52:17.084Z,79.22
2022-11-02T05:54:43.792Z,78.32
2022-11-02T05:57:10.427Z,77.94
2022-11-02T05:59:37.033Z,77.66
2022-11-02T06:02:03.827Z,77.11
2022-11-02T06:04:30.496Z,75.56
2022-11-02T06:06:57.053Z,74.57
2022-11-02T06:09:23.909Z,75.85
2022-11-02T06:11:50.597Z,75.00
2022-11-02T06:14:17.256Z,76.07
2022-11-02T06:16:43.862Z,76.69
2022-11-02T06:19:10.625Z,76.29
2022-11-02T06:21:37.315Z,76.08
2022-11-02T06:24:04.240Z,75.82
2022-11-02T06:26:30.855Z,76.14
2022-11-02T06:28:57.402Z,75.26
2022-11-02T06:31:24.059Z,75.51
2022-11-02T06:33:50.673Z,75.26
2022-11-02T06:36:17.304Z,75.28
2022-11-02T06:38:46.069Z,74.97
2022-11-02T06:41:12.771Z,73.94
2022-11-02T06:43:39.554Z,73.66
2022-11-02T06:46:06.360Z,73.79
2022-11-02T06:48:35.246Z,73.79
2022-11-02T06:51:03.209Z,72.15
2022-11-02T06:53:29.855Z,71.12
2022-11-02T06:55:57.208Z,70.38
2022-11-02T06:58:24.635Z,71.07
2022-11-02T07:00:51.627Z,71.64
2022-11-02T07:03:18.359Z,70.86
2022-11-02T07:05:50.081Z,69.63
2022-11-02T07:08:16.678Z,69.57
2022-11-02T07:10:43.230Z,68.85
2022-11-02T07:13:09.887Z,68.83
2022-11-02T07:15:36.539Z,68.79
2022-11-02T07:18:03.429Z,68.13
2022-11-02T07:20:33.613Z,67.05
2022-11-02T07:23:01.028Z,65.98
2022-11-02T07:25:31.045Z,65.81
2022-11-02T07:27:59.941Z,65.45
2022-11-02T07:30:27.633Z,64.44
2022-11-02T07:32:54.327Z,64.89
2022-11-02T07:35:21.022Z,63.26
2022-11-02T07:37:58.254Z,60.94
2022-11-02T07:40:25.002Z,61.40
2022-11-02T07:42:53.909Z,60.05
2022-11-02T07:45:24.188Z,59.76
2022-11-02T07:47:51.133Z,58.21
2022-11-02T07:50:19.631Z,57.38
2022-11-02T07:52:47.225Z,57.00
2022-11-02T07:55:15.197Z,55.24
2022-11-02T07:57:43.607Z,55.91
2022-11-02T08:00:11.805Z,53.95
2022-11-02T08:02:39.172Z,53.38
2022-11-02T08:05:06.162Z,52.35
2022-11-02T08:07:32.887Z,52.38
2022-11-02T08:09:59.634Z,49.77
2022-11-02T08:12:26.901Z,48.71
2022-11-02T08:14:53.629Z,48.61
2022-11-02T08:17:21.654Z,46.72
2022-11-02T08:19:48.382Z,45.07
2022-11-02T08:22:15.162Z,43.56
2022-11-02T08:24:41.786Z,41.03
2022-11-02T08:27:08.445Z,39.11
2022-11-02T08:29:36.813Z,38.11
2022-11-02T08:32:03.510Z,36.37
2022-11-02T08:34:30.122Z,37.06
2022-11-02T08:36:57.058Z,37.64
2022-11-02T08:39:23.733Z,37.97
2022-11-02T08:41:50.393Z,35.55
2022-11-02T08:44:17.092Z,37.09
2022-11-02T08:46:43.718Z,36.22
2022-11-02T08:49:10.484Z,35.55
2022-11-02T08:51:37.150Z,35.03
2022-11-02T08:54:03.914Z,35.12
2022-11-02T08:56:30.533Z,35.69
2022-11-02T08:58:57.141Z,35.26
2022-11-02T09:01:23.909Z,34.33
2022-11-02T09:03:50.668Z,34.39
2022-11-02T09:06:17.258Z,33.31
2022-11-02T09:08:44.010Z,34.12
2022-11-02T09:11:10.627Z,33.57
2022-11-02T09:13:37.889Z,33.77
2022-11-02T09:16:04.740Z,34.26
2022-11-02T09:18:31.394Z,33.85
2022-11-02T09:21:01.569Z,32.39
2022-11-02T09:23:28.306Z,32.76
2022-11-02T09:25:54.953Z,33.57
2022-11-02T09:28:21.627Z,32.43
2022-11-02T09:30:48.364Z,33.15
2022-11-02T09:33:15.100Z,34.15
2022-11-02T09:35:44.393Z,33.25
2022-11-02T09:38:11.215Z,33.17
2022-11-02T09:40:43.386Z,33.47
2022-11-02T09:43:18.970Z,31.74
2022-11-02T09:46:27.993Z,32.50
2022-11-02T09:49:03.846Z,32.05
2022-11-02T09:51:37.699Z,32.87
2022-11-02T09:54:22.437Z,32.28
2022-11-02T09:56:49.921Z,32.00
2022-11-02T09:59:23.465Z,30.66
2022-11-02T10:02:10.247Z,31.58
2022-11-02T10:04:42.947Z,31.04
2022-11-02T10:07:27.465Z,30.44
2022-11-02T10:09:55.026Z,30.27
2022-11-02T10:12:45.559Z,29.22
2022-11-02T10:15:36.823Z,30.54
2022-11-02T10:18:03.722Z,29.05
2022-11-02T10:20:34.948Z,29.84
2022-11-02T10:23:04.538Z,30.30
2022-11-02T10:25:31.261Z,30.15
2022-11-02T10:28:10.946Z,29.98
2022-11-02T10:30:37.661Z,29.84
2022-11-02T10:33:05.885Z,29.21
2022-11-02T10:36:16.718Z,28.85
2022-11-02T10:39:01.289Z,28.13
2022-11-02T10:42:00.546Z,28.23
2022-11-02T10:44:37.974Z,29.95
2022-11-02T10:47:19.018Z,28.00
2022-11-02T10:50:15.397Z,27.77
2022-11-02T10:52:43.579Z,27.84
2022-11-02T10:55:17.748Z,27.98
2022-11-02T10:57:44.219Z,27.39
2022-11-02T11:00:31.401Z,27.45
2022-11-02T11:03:10.996Z,27.20
2022-11-02T11:06:00.416Z,27.39
2022-11-02T11:08:34.473Z,28.75
2022-11-02T11:11:26.314Z,27.60
2022-11-02T11:16:46.264Z,28.18
2022-11-02T11:19:40.719Z,27.44
2022-11-02T11:22:27.353Z,27.23
2022-11-02T11:24:56.790Z,27.60
2022-11-02T11:27:23.557Z,28.19
2022-11-02T11:29:56.746Z,27.86
2022-11-02T11:32:29.819Z,28.45
2022-11-02T11:35:05.304Z,28.12
2022-11-02T11:37:31.974Z,27.46
2022-11-02T11:40:01.194Z,26.53
2022-11-02T11:42:29.885Z,26.34
2022-11-02T11:45:21.365Z,27.56
2022-11-02T11:47:51.783Z,27.95
2022-11-02T11:50:21.404Z,27.12
2022-11-02T11:53:22.565Z,27.42
2022-11-02T11:55:49.156Z,26.30
2022-11-02T11:58:15.707Z,26.76
2022-11-02T12:00:42.295Z,27.48
2022-11-02T12:03:13.389Z,26.60
2022-11-02T12:06:01.964Z,27.56
2022-11-02T12:08:31.394Z,25.26
2022-11-02T12:11:03.079Z,24.36
2022-11-02T12:13:53.890Z,23.80
2022-11-02T12:16:29.605Z,23.49
2022-11-02T12:22:44.445Z,24.70
2022-11-02T12:25:30.767Z,23.54
2022-11-02T12:28:34.557Z,24.60
2022-11-02T12:31:25.265Z,23.52
2022-11-02T12:33:51.789Z,23.73
2022-11-02T12:36:24.155Z,23.45
2022-11-02T12:38:52.377Z,23.20
2022-11-02T12:41:46.654Z,23.96
2022-11-02T12:44:31.037Z,24.55
2022-11-02T12:47:03.238Z,24.50
2022-11-02T12:49:38.864Z,22.86
2022-11-02T12:52:24.358Z,23.11
2022-11-02T12:54:54.517Z,23.14
2022-11-02T12:57:23.253Z,22.09
2022-11-02T12:59:51.391Z,22.37
2022-11-02T13:02:25.805Z,22.85
2022-11-02T13:04:53.446Z,23.72
2022-11-02T13:07:28.579Z,22.98
2022-11-02T13:10:06.136Z,23.56
2022-11-02T13:12:33.578Z,24.56
2022-11-02T13:15:00.209Z,22.85
2022-11-02T13:17:47.083Z,22.64
2022-11-02T13:20:29.041Z,23.16
2022-11-02T13:22:57.937Z,23.47
2022-11-02T13:25:53.774Z,23.16
2022-11-02T13:28:44.685Z,23.64
2022-11-02T13:31:38.123Z,23.13
2022-11-02T13:34:06.921Z,24.02
2022-11-02T13:36:37.198Z,23.87
2022-11-02T13:39:10.703Z,24.53
2022-11-02T13:41:48.495Z,24.51
2022-11-02T13:44:24.863Z,24.82
2022-11-02T13:47:13.042Z,24.32
2022-11-02T13:49:43.953Z,25.47
2022-11-02T13:52:15.109Z,25.40
2022-11-02T13:54:41.914Z,26.83
2022-11-02T13:57:50.922Z,26.80
2022-11-02T14:00:23.645Z,27.60
2022-11-02T14:03:17.121Z,27.35
2022-11-02T14:06:03.092Z,27.12
2022-11-02T14:08:47.725Z,27.25
2022-11-02T14:11:14.287Z,26.79
2022-11-02T14:13:59.035Z,28.46
2022-11-02T14:16:50.331Z,28.53
2022-11-02T14:19:32.612Z,28.57
2022-11-02T14:21:59.160Z,27.97
2022-11-02T14:24:34.843Z,28.14
2022-11-02T14:27:03.801Z,27.87
2022-11-02T14:29:42.666Z,28.17
2022-11-02T14:32:38.682Z,28.21
2022-11-02T14:35:34.388Z,28.36
2022-11-02T14:38:26.202Z,28.59
2022-11-02T14:40:58.766Z,28.77
2022-11-02T14:43:31.450Z,28.28
2022-11-02T14:46:28.758Z,29.28
2022-11-02T14:48:56.486Z,29.73
2022-11-02T14:51:34.021Z,29.34
2022-11-02T14:54:03.097Z,29.81
2022-11-02T14:56:54.666Z,29.84
2022-11-02T14:59:28.140Z,30.71
2022-11-02T15:01:57.022Z,31.50
2022-11-02T15:04:24.505Z,32.59
2022-11-02T15:06:55.671Z,33.52
2022-11-02T15:10:10.436Z,33.49
2022-11-02T15:12:39.676Z,33.30
2022-11-02T15:15:24.415Z,33.74
2022-11-02T15:17:52.503Z,34.54
2022-11-02T15:20:27.668Z,35.29
2022-11-02T15:22:56.689Z,34.83
2022-11-02T15:25:29.238Z,35.19
2022-11-02T15:27:57.228Z,35.35
2022-11-02T15:30:28.082Z,35.85
2022-11-02T15:33:01.704Z,35.82
2022-11-02T15:35:34.195Z,36.37
2022-11-02T15:38:16.927Z,36.82
2022-11-02T15:40:49.668Z,37.11
2022-11-02T15:43:37.927Z,37.16
2022-11-02T15:46:42.546Z,37.77
2022-11-02T15:49:27.525Z,38.29
2022-11-02T15:52:11.957Z,39.34
2022-11-02T15:55:02.816Z,39.40
2022-11-02T15:57:42.226Z,40.01
2022-11-02T16:00:11.188Z,40.49
2022-11-02T16:02:46.857Z,40.52
2022-11-02T16:05:23.556Z,41.38
2022-11-02T16:08:09.960Z,41.32
2022-11-02T16:10:37.758Z,41.71
2022-11-02T16:13:10.201Z,41.99
2022-11-02T16:15:38.742Z,42.46
2022-11-02T16:18:05.618Z,42.11
2022-11-02T16:20:35.496Z,42.28
2022-11-02T16:23:05.535Z,42.56
2022-11-02T16:25:40.806Z,42.83
2022-11-02T16:28:18.665Z,44.00
2022-11-02T16:31:16.120Z,45.33
2022-11-02T16:33:45.063Z,45.25
2022-11-02T16:36:14.744Z,45.67
2022-11-02T16:39:05.862Z,45.71
2022-11-02T16:41:33.528Z,46.35
2022-11-02T16:44:21.702Z,47.06
2022-11-02T16:46:58.532Z,46.67
2022-11-02T16:49:25.938Z,47.51
2022-11-02T16:51:59.533Z,48.50
2022-11-02T16:54:35.243Z,49.82
2022-11-02T16:57:12.136Z,49.87
2022-11-02T16:59:50.458Z,49.82
2022-11-02T17:02:17.330Z,50.11
2022-11-02T17:04:44.321Z,50.59
2022-11-02T17:07:31.968Z,50.20
2022-11-02T17:09:59.487Z,50.51
2022-11-02T17:12:34.756Z,50.59
2022-11-02T17:15:05.441Z,51.25
2022-11-02T17:17:36.829Z,52.01
2022-11-02T17:20:15.249Z,52.87
2022-11-02T17:22:50.713Z,52.77
2022-11-02T17:25:30.197Z,52.98
2022-11-02T17:27:58.102Z,52.63
2022-11-02T17:30:33.996Z,51.50
2022-11-02T17:33:07.873Z,51.72
2022-11-02T17:35:34.698Z,52.57
2022-11-02T17:38:01.771Z,52.57
2022-11-02T17:40:28.448Z,53.04
2022-11-02T17:43:02.244Z,53.39
2022-11-02T17:45:30.709Z,53.94
2022-11-02T17:47:58.373Z,55.37
2022-11-02T17:50:25.799Z,55.41
2022-11-02T17:52:53.280Z,55.49
2022-11-02T17:55:27.813Z,54.59
2022-11-02T17:57:55.038Z,54.33
2022-11-02T18:00:23.229Z,54.18
2022-11-02T18:02:54.650Z,54.27
2022-11-02T18:05:30.199Z,54.51
2022-11-02T18:07:57.846Z,54.74
2022-11-02T18:10:26.365Z,54.69
2022-11-02T18:12:53.178Z,54.62
2022-11-02T18:15:21.485Z,53.70
2022-11-02T18:17:48.257Z,53.73
2022-11-02T18:20:15.151Z,53.67
2022-11-02T18:22:41.838Z,53.81
2022-11-02T18:25:16.451Z,53.75
2022-11-02T18:27:43.220Z,54.66
2022-11-02T18:30:11.666Z,54.45
2022-11-02T18:32:39.042Z,54.99
2022-11-02T18:35:06.915Z,55.20
2022-11-02T18:37:33.798Z,55.42
2022-11-02T18:40:00.436Z,56.33
2022-11-02T18:42:27.235Z,56.12
2022-11-02T18:44:53.863Z,55.98
2022-11-02T18:47:20.539Z,56.32
2022-11-02T18:49:47.209Z,56.71
2022-11-02T18:52:18.336Z,57.31
2022-11-02T18:54:48.756Z,57.55
2022-11-02T18:57:15.387Z,57.34
2022-11-02T18:59:42.194Z,56.87
2022-11-02T19:02:10.063Z,56.52
2022-11-02T19:04:36.863Z,56.73
2022-11-02T19:07:22.334Z,55.51
2022-11-02T19:09:49.078Z,57.44
2022-11-02T19:12:20.111Z,58.05
2022-11-02T19:14:47.461Z,58.03
2022-11-02T19:17:14.269Z,59.03
2022-11-02T19:19:43.042Z,59.10
2022-11-02T19:22:12.203Z,59.92
2022-11-02T19:24:39.143Z,59.57
2022-11-02T19:27:05.789Z,59.97
2022-11-02T19:29:34.022Z,58.88
2022-11-02T19:32:00.727Z,60.10
2022-11-02T19:34:27.433Z,60.89
2022-11-02T19:36:54.102Z,61.02
2022-11-02T19:39:20.731Z,60.45
2022-11-02T19:41:51.825Z,59.64
2022-11-02T19:44:18.796Z,59.46
2022-11-02T19:46:45.404Z,61.00
2022-11-02T19:49:12.095Z,60.82
2022-11-02T19:51:38.773Z,60.55
2022-11-02T19:54:05.646Z,60.38
2022-11-02T19:56:33.524Z,61.00
2022-11-02T19:59:00.261Z,61.94
2022-11-02T20:01:34.250Z,61.87
2022-11-02T20:04:01.057Z,61.59
2022-11-02T20:06:31.170Z,61.57
2022-11-02T20:08:58.222Z,62.14
2022-11-02T20:11:28.614Z,62.16
2022-11-02T20:13:59.513Z,65.11
2022-11-02T20:16:26.386Z,64.71
2022-11-02T20:18:53.416Z,65.37
2022-11-02T20:21:30.075Z,65.54
2022-11-02T20:23:59.110Z,65.25
2022-11-02T20:26:27.237Z,64.32
2022-11-02T20:28:53.909Z,63.99
2022-11-02T20:31:22.669Z,65.99
2022-11-02T20:33:49.530Z,64.71
2022-11-02T20:36:16.348Z,64.86
2022-11-02T20:38:43.239Z,64.17
2022-11-02T20:41:14.631Z,65.30
2022-11-02T20:43:42.834Z,65.91
2022-11-02T20:49:21.639Z,65.23
2022-11-02T20:51:53.007Z,64.30
2022-11-02T20:54:20.522Z,63.77
2022-11-02T20:56:47.941Z,63.04
2022-11-02T20:59:14.840Z,63.90
2022-11-02T21:01:41.790Z,64.40
2022-11-02T21:04:08.741Z,64.80
2022-11-02T21:06:35.423Z,64.42
2022-11-02T21:09:08.991Z,64.74
2022-11-02T21:11:56.306Z,64.42
2022-11-02T21:14:23.235Z,64.16
2022-11-02T21:16:49.860Z,64.33
2022-11-02T21:19:16.454Z,63.90
2022-11-02T21:21:43.093Z,67.60
2022-11-02T21:24:09.937Z,65.75
2022-11-02T21:26:36.615Z,64.98
2022-11-02T21:29:03.276Z,66.95
2022-11-02T21:31:29.990Z,66.91
2022-11-02T21:33:56.659Z,66.93
2022-11-02T21:36:23.319Z,67.96
2022-11-02T21:38:50.033Z,66.91
2022-11-02T21:41:21.040Z,66.45
2022-11-02T21:43:47.784Z,65.32
2022-11-02T21:46:14.460Z,65.25
2022-11-02T21:48:41.079Z,65.72
2022-11-02T21:51:09.557Z,64.83
2022-11-02T21:53:37.637Z,64.20
2022-11-02T21:56:14.012Z,64.67
2022-11-02T21:58:44.768Z,64.45
2022-11-02T22:01:32.688Z,64.67
2022-11-02T22:03:59.563Z,65.37
2022-11-02T22:06:31.078Z,65.12
2022-11-02T22:08:59.098Z,65.40
2022-11-02T22:11:28.502Z,65.64
2022-11-02T22:13:56.502Z,65.81
2022-11-02T22:16:28.224Z,67.80
2022-11-02T22:18:56.179Z,67.77
2022-11-02T22:21:22.925Z,66.17
2022-11-02T22:23:49.833Z,65.18
2022-11-02T22:26:18.260Z,65.78
2022-11-02T22:28:45.340Z,66.95
2022-11-02T22:31:20.151Z,66.43
2022-11-02T22:33:48.359Z,66.21
2022-11-02T22:36:15.897Z,67.60
2022-11-02T22:38:48.429Z,66.50
2022-11-02T22:41:15.926Z,66.03
2022-11-02T22:43:42.782Z,64.77
2022-11-02T22:46:09.589Z,64.74
2022-11-02T22:48:36.315Z,64.20
2022-11-02T22:51:03.114Z,65.54
2022-11-02T22:53:29.822Z,64.90
2022-11-02T22:56:01.267Z,64.75
2022-11-02T22:58:28.665Z,64.90
2022-11-02T23:00:55.261Z,65.12
2022-11-02T23:03:22.082Z,66.94
2022-11-02T23:05:48.718Z,67.64
2022-11-02T23:08:15.382Z,68.43
2022-11-02T23:11:00.767Z,66.97
2022-11-02T23:13:27.699Z,66.70
2022-11-02T23:16:21.122Z,66.16
2022-11-02T23:19:17.839Z,66.01
2022-11-02T23:22:31.586Z,66.14
2022-11-02T23:25:11.872Z,65.96
2022-11-02T23:28:13.716Z,66.66
2022-11-02T23:30:58.723Z,65.59
2022-11-02T23:33:30.578Z,65.72
2022-11-02T23:36:11.577Z,65.13
2022-11-02T23:38:57.548Z,64.57
2022-11-02T23:41:25.094Z,66.50
2022-11-02T23:43:51.701Z,66.40
2022-11-02T23:46:18.302Z,65.60
2022-11-02T23:48:47.129Z,65.56
2022-11-02T23:51:34.928Z,66.40
2022-11-02T23:54:27.721Z,65.83
2022-11-02T23:56:54.297Z,65.05
2022-11-02T23:59:21.034Z,66.21
